Stanton, Texas
Current Conditions -  °F | °C
As of 10:15 PM on Monday 22 Dec 2014 (Local Time) from KBPG Reporting Station
Broken Clouds Broken Clouds  
Wind Chill: 54°   Ceiling: 9000
Heat Index: 54°   Visibility: 10mi
Dew Point: 33°   Wind: 10mph
Humidity: 46%   Direction: 20°NNE
Pressure: 29.74"   Gusts: NA
Location:  32.13°N, 101.79°W
Report Text: KBPG 230415Z AUTO 02009KT 10SM BKN090 BKN110 12/01 A2974 RMK AO2 T01200006
Loading
Personal Weather Stations






























Interactive Weather Map New forecast layout! Learn more

10-Day Weather Forecast

Advertisements
Track Severe Weather on mobile